sensor_id;sensor_type;location;lat;lon;timestamp;pressure;altitude;pressure_sealevel;temperature;humidity
20145;BME280;10233;50.814;6.590;2023-04-06T00:00:00;100460.16;;;2.12;100.00
20145;BME280;10233;50.814;6.590;2023-04-06T00:01:00;100460.59;;;1.98;100.00
20145;BME280;10233;50.814;6.590;2023-04-06T00:02:01;100463.50;;;1.95;100.00
20145;BME280;10233;50.814;6.590;2023-04-06T00:03:02;100460.78;;;1.87;100.00
20145;BME280;10233;50.814;6.590;2023-04-06T00:04:04;100460.53;;;1.71;100.00
20145;BME280;10233;50.814;6.590;2023-04-06T00:05:05;100453.94;;;1.67;100.00
20145;BME280;10233;50.814;6.590;2023-04-06T00:06:07;100464.66;;;1.64;100.00
20145;BME280;10233;50.814;6.590;2023-04-06T00:07:07;100451.97;;;1.69;100.00
20145;BME280;10233;50.814;6.590;2023-04-06T00:08:08;100459.44;;;1.74;100.00
20145;BME280;10233;50.814;6.590;2023-04-06T00:09:08;100455.72;;;1.76;100.00
20145;BME280;10233;50.814;6.590;2023-04-06T00:10:09;100455.72;;;1.76;100.00
20145;BME280;10233;50.814;6.590;2023-04-06T00:11:10;100449.75;;;1.74;100.00
20145;BME280;10233;50.814;6.590;2023-04-06T00:12:11;100447.97;;;1.75;100.00
20145;BME280;10233;50.814;6.590;2023-04-06T00:13:11;100449.22;;;1.71;100.00
20145;BME280;10233;50.814;6.590;2023-04-06T00:14:12;100451.88;;;1.61;100.00
20145;BME280;10233;50.814;6.590;2023-04-06T00:15:16;100456.53;;;1.67;100.00
20145;BME280;10233;50.814;6.590;2023-04-06T00:16:17;100454.50;;;1.61;100.00
20145;BME280;10233;50.814;6.590;2023-04-06T00:17:18;100447.59;;;1.51;100.00
20145;BME280;10233;50.814;6.590;2023-04-06T00:18:19;100445.38;;;1.46;100.00
20145;BME280;10233;50.814;6.590;2023-04-06T00:19:19;100448.56;;;1.50;100.00
20145;BME280;10233;50.814;6.590;2023-04-06T00:20:20;100447.16;;;1.55;100.00
20145;BME280;10233;50.814;6.590;2023-04-06T00:21:21;100442.91;;;1.64;100.00
20145;BME280;10233;50.814;6.590;2023-04-06T00:22:21;100440.25;;;1.73;100.00
20145;BME280;10233;50.814;6.590;2023-04-06T00:23:22;100440.25;;;1.73;100.00
20145;BME280;10233;50.814;6.590;2023-04-06T00:24:23;100440.41;;;1.72;100.00
20145;BME280;10233;50.814;6.590;2023-04-06T00:25:23;100445.09;;;1.68;100.00
20145;BME280;10233;50.814;6.590;2023-04-06T00:26:24;100442.03;;;1.82;100.00
20145;BME280;10233;50.814;6.590;2023-04-06T00:27:25;100426.00;;;1.85;100.00
20145;BME280;10233;50.814;6.590;2023-04-06T00:28:25;100437.88;;;1.89;100.00
20145;BME280;10233;50.814;6.590;2023-04-06T00:29:26;100434.88;;;1.75;100.00
20145;BME280;10233;50.814;6.590;2023-04-06T00:30:27;100430.34;;;1.67;100.00
20145;BME280;10233;50.814;6.590;2023-04-06T00:31:28;100433.53;;;1.61;100.00
20145;BME280;10233;50.814;6.590;2023-04-06T00:32:28;100436.16;;;1.61;100.00
20145;BME280;10233;50.814;6.590;2023-04-06T00:33:29;100427.03;;;1.65;100.00
20145;BME280;10233;50.814;6.590;2023-04-06T00:34:29;100430.22;;;1.59;100.00
20145;BME280;10233;50.814;6.590;2023-04-06T00:35:30;100434.78;;;1.57;100.00
20145;BME280;10233;50.814;6.590;2023-04-06T00:36:31;100432.97;;;1.67;100.00
20145;BME280;10233;50.814;6.590;2023-04-06T00:37:32;100429.94;;;1.62;100.00
20145;BME280;10233;50.814;6.590;2023-04-06T00:38:32;100424.81;;;1.70;100.00
20145;BME280;10233;50.814;6.590;2023-04-06T00:39:34;100424.69;;;1.72;100.00
20145;BME280;10233;50.814;6.590;2023-04-06T00:40:35;100421.09;;;1.73;100.00
20145;BME280;10233;50.814;6.590;2023-04-06T00:41:36;100416.41;;;1.76;100.00
20145;BME280;10233;50.814;6.590;2023-04-06T00:42:37;100416.41;;;1.76;100.00
20145;BME280;10233;50.814;6.590;2023-04-06T00:43:37;100416.09;;;1.79;100.00
20145;BME280;10233;50.814;6.590;2023-04-06T00:44:39;100416.09;;;1.79;100.00
20145;BME280;10233;50.814;6.590;2023-04-06T00:45:40;100416.41;;;1.76;100.00
20145;BME280;10233;50.814;6.590;2023-04-06T00:46:41;100410.91;;;1.70;100.00
20145;BME280;10233;50.814;6.590;2023-04-06T00:47:42;100416.94;;;1.70;100.00
20145;BME280;10233;50.814;6.590;2023-04-06T00:48:43;100414.94;;;1.55;100.00
20145;BME280;10233;50.814;6.590;2023-04-06T00:49:44;100409.84;;;1.53;100.00
20145;BME280;10233;50.814;6.590;2023-04-06T00:50:45;100416.44;;;1.57;100.00
20145;BME280;10233;50.814;6.590;2023-04-06T00:51:46;100409.13;;;1.61;100.00
20145;BME280;10233;50.814;6.590;2023-04-06T00:52:48;100411.50;;;1.45;100.00
20145;BME280;10233;50.814;6.590;2023-04-06T00:53:49;100411.38;;;1.37;100.00
20145;BME280;10233;50.814;6.590;2023-04-06T00:54:50;100410.69;;;1.25;100.00
20145;BME280;10233;50.814;6.590;2023-04-06T00:55:53;100409.44;;;1.29;100.00
20145;BME280;10233;50.814;6.590;2023-04-06T00:56:55;100410.81;;;1.23;100.00
20145;BME280;10233;50.814;6.590;2023-04-06T00:57:58;100406.56;;;1.23;100.00
20145;BME280;10233;50.814;6.590;2023-04-06T00:59:01;100405.72;;;1.13;100.00
20145;BME280;10233;50.814;6.590;2023-04-06T01:00:02;100404.22;;;1.10;100.00
20145;BME280;10233;50.814;6.590;2023-04-06T01:01:03;100405.19;;;1.09;100.00
20145;BME280;10233;50.814;6.590;2023-04-06T01:02:04;100405.75;;;1.03;100.00
20145;BME280;10233;50.814;6.590;2023-04-06T01:03:11;100401.88;;;1.07;100.00
20145;BME280;10233;50.814;6.590;2023-04-06T01:04:16;100397.91;;;1.22;100.00
20145;BME280;10233;50.814;6.590;2023-04-06T01:05:16;100406.00;;;1.19;100.00
20145;BME280;10233;50.814;6.590;2023-04-06T01:06:24;100400.50;;;1.22;100.00
20145;BME280;10233;50.814;6.590;2023-04-06T01:07:34;100398.56;;;1.24;100.00
20145;BME280;10233;50.814;6.590;2023-04-06T01:08:48;100394.59;;;1.30;100.00
20145;BME280;10233;50.814;6.590;2023-04-06T01:09:54;100398.00;;;1.30;100.00
20145;BME280;10233;50.814;6.590;2023-04-06T01:10:59;100397.19;;;1.30;100.00
20145;BME280;10233;50.814;6.590;2023-04-06T01:12:03;100385.06;;;1.38;100.00
20145;BME280;10233;50.814;6.590;2023-04-06T01:13:05;100386.56;;;1.41;100.00
20145;BME280;10233;50.814;6.590;2023-04-06T01:14:33;100390.25;;;1.48;100.00
20145;BME280;10233;50.814;6.590;2023-04-06T01:15:35;100392.88;;;1.48;100.00
20145;BME280;10233;50.814;6.590;2023-04-06T01:16:41;100384.63;;;1.52;100.00
20145;BME280;10233;50.814;6.590;2023-04-06T01:17:48;100392.19;;;1.55;100.00
20145;BME280;10233;50.814;6.590;2023-04-06T01:18:51;100380.47;;;1.59;100.00
20145;BME280;10233;50.814;6.590;2023-04-06T01:19:55;100378.63;;;1.69;100.00
20145;BME280;10233;50.814;6.590;2023-04-06T01:21:02;100380.28;;;1.70;100.00
20145;BME280;10233;50.814;6.590;2023-04-06T01:22:03;100379.75;;;1.76;100.00
20145;BME280;10233;50.814;6.590;2023-04-06T01:23:03;100378.63;;;1.79;100.00
20145;BME280;10233;50.814;6.590;2023-04-06T01:24:06;100376.69;;;1.81;100.00
20145;BME280;10233;50.814;6.590;2023-04-06T01:25:22;100367.84;;;1.82;100.00
20145;BME280;10233;50.814;6.590;2023-04-06T01:26:37;100372.50;;;1.88;100.00
20145;BME280;10233;50.814;6.590;2023-04-06T01:27:41;100363.84;;;1.87;100.00
20145;BME280;10233;50.814;6.590;2023-04-06T01:28:45;100368.78;;;1.90;100.00
20145;BME280;10233;50.814;6.590;2023-04-06T01:30:07;100365.47;;;1.98;100.00
20145;BME280;10233;50.814;6.590;2023-04-06T01:31:37;100362.00;;;1.97;100.00
20145;BME280;10233;50.814;6.590;2023-04-06T01:32:38;100358.41;;;1.98;100.00
20145;BME280;10233;50.814;6.590;2023-04-06T01:33:40;100363.94;;;1.95;100.00
20145;BME280;10233;50.814;6.590;2023-04-06T01:34:44;100363.53;;;1.90;100.00
20145;BME280;10233;50.814;6.590;2023-04-06T01:35:45;100357.47;;;1.90;100.00
20145;BME280;10233;50.814;6.590;2023-04-06T01:36:49;100357.88;;;1.95;100.00
20145;BME280;10233;50.814;6.590;2023-04-06T01:38:03;100366.19;;;1.81;100.00
20145;BME280;10233;50.814;6.590;2023-04-06T01:39:07;100362.66;;;1.72;100.00
20145;BME280;10233;50.814;6.590;2023-04-06T01:40:11;100361.69;;;1.73;100.00
20145;BME280;10233;50.814;6.590;2023-04-06T01:41:18;100360.75;;;1.65;100.00
20145;BME280;10233;50.814;6.590;2023-04-06T01:42:23;100357.59;;;1.61;100.00
20145;BME280;10233;50.814;6.590;2023-04-06T01:43:25;100353.03;;;1.63;100.00
20145;BME280;10233;50.814;6.590;2023-04-06T01:44:44;100354.41;;;1.58;100.00
20145;BME280;10233;50.814;6.590;2023-04-06T01:45:48;100355.66;;;1.53;100.00
20145;BME280;10233;50.814;6.590;2023-04-06T01:46:53;100351.06;;;1.65;100.00
20145;BME280;10233;50.814;6.590;2023-04-06T01:47:54;100355.38;;;1.66;100.00
20145;BME280;10233;50.814;6.590;2023-04-06T01:48:58;100349.03;;;1.69;100.00
20145;BME280;10233;50.814;6.590;2023-04-06T01:50:08;100354.25;;;1.69;100.00
20145;BME280;10233;50.814;6.590;2023-04-06T01:51:14;100354.09;;;1.70;100.00
20145;BME280;10233;50.814;6.590;2023-04-06T01:52:22;100351.88;;;1.75;100.00
20145;BME280;10233;50.814;6.590;2023-04-06T01:53:26;100350.53;;;1.71;100.00
20145;BME280;10233;50.814;6.590;2023-04-06T01:54:33;100346.94;;;1.72;100.00
20145;BME280;10233;50.814;6.590;2023-04-06T01:55:40;100344.44;;;1.71;100.00
20145;BME280;10233;50.814;6.590;2023-04-06T01:56:52;100337.13;;;1.74;100.00
20145;BME280;10233;50.814;6.590;2023-04-06T01:58:04;100338.63;;;1.77;100.00
20145;BME280;10233;50.814;6.590;2023-04-06T01:59:10;100336.53;;;1.80;100.00
20145;BME280;10233;50.814;6.590;2023-04-06T02:00:15;100343.34;;;1.73;100.00
20145;BME280;10233;50.814;6.590;2023-04-06T02:01:22;100338.09;;;1.73;100.00
20145;BME280;10233;50.814;6.590;2023-04-06T02:02:28;100342.81;;;1.70;100.00
20145;BME280;10233;50.814;6.590;2023-04-06T02:03:36;100337.56;;;1.70;100.00
20145;BME280;10233;50.814;6.590;2023-04-06T02:04:41;100342.81;;;1.70;100.00
20145;BME280;10233;50.814;6.590;2023-04-06T02:05:45;100336.22;;;1.56;100.00
20145;BME280;10233;50.814;6.590;2023-04-06T02:06:56;100340.25;;;1.51;100.00
20145;BME280;10233;50.814;6.590;2023-04-06T02:07:59;100340.09;;;1.52;100.00
20145;BME280;10233;50.814;6.590;2023-04-06T02:09:07;100341.06;;;1.51;100.00
20145;BME280;10233;50.814;6.590;2023-04-06T02:10:12;100340.13;;;1.42;100.00
20145;BME280;10233;50.814;6.590;2023-04-06T02:11:13;100339.59;;;1.39;100.00
20145;BME280;10233;50.814;6.590;2023-04-06T02:12:19;100336.03;;;1.31;100.00
20145;BME280;10233;50.814;6.590;2023-04-06T02:13:20;100340.41;;;1.40;100.00
20145;BME280;10233;50.814;6.590;2023-04-06T02:14:25;100336.56;;;1.34;100.00
20145;BME280;10233;50.814;6.590;2023-04-06T02:15:29;100331.75;;;1.20;100.00
20145;BME280;10233;50.814;6.590;2023-04-06T02:16:29;100332.03;;;1.17;100.00
20145;BME280;10233;50.814;6.590;2023-04-06T02:17:30;100333.31;;;1.13;100.00
20145;BME280;10233;50.814;6.590;2023-04-06T02:18:31;100328.88;;;1.13;100.00
20145;BME280;10233;50.814;6.590;2023-04-06T02:19:31;100330.28;;;1.08;100.00
20145;BME280;10233;50.814;6.590;2023-04-06T02:20:32;100321.59;;;1.08;100.00
20145;BME280;10233;50.814;6.590;2023-04-06T02:21:33;100338.81;;;1.10;100.00
20145;BME280;10233;50.814;6.590;2023-04-06T02:22:35;100329.47;;;0.98;100.00
20145;BME280;10233;50.814;6.590;2023-04-06T02:23:36;100329.72;;;0.95;100.00
20145;BME280;10233;50.814;6.590;2023-04-06T02:24:36;100327.25;;;0.93;100.00
20145;BME280;10233;50.814;6.590;2023-04-06T02:25:39;100333.72;;;0.99;100.00
20145;BME280;10233;50.814;6.590;2023-04-06T02:26:41;100331.66;;;0.93;100.00
20145;BME280;10233;50.814;6.590;2023-04-06T02:27:41;100326.28;;;0.94;100.00
20145;BME280;10233;50.814;6.590;2023-04-06T02:28:42;100334.97;;;0.95;100.00
20145;BME280;10233;50.814;6.590;2023-04-06T02:29:42;100333.44;;;0.93;100.00
20145;BME280;10233;50.814;6.590;2023-04-06T02:30:43;100326.41;;;1.02;100.00
20145;BME280;10233;50.814;6.590;2023-04-06T02:31:48;100335.63;;;0.97;100.00
20145;BME280;10233;50.814;6.590;2023-04-06T02:32:48;100329.16;;;1.01;100.00
20145;BME280;10233;50.814;6.590;2023-04-06T02:33:50;100325.03;;;0.98;100.00
20145;BME280;10233;50.814;6.590;2023-04-06T02:34:51;100335.50;;;0.98;100.00
20145;BME280;10233;50.814;6.590;2023-04-06T02:35:54;100334.41;;;1.01;100.00
20145;BME280;10233;50.814;6.590;2023-04-06T02:36:55;100331.66;;;0.83;100.00
20145;BME280;10233;50.814;6.590;2023-04-06T02:37:55;100330.28;;;0.89;100.00
20145;BME280;10233;50.814;6.590;2023-04-06T02:38:56;100339.09;;;0.88;100.00
20145;BME280;10233;50.814;6.590;2023-04-06T02:39:57;100336.06;;;0.93;100.00
20145;BME280;10233;50.814;6.590;2023-04-06T02:40:57;100332.06;;;0.88;100.00
20145;BME280;10233;50.814;6.590;2023-04-06T02:42:01;100333.16;;;0.86;100.00
20145;BME280;10233;50.814;6.590;2023-04-06T02:43:01;100335.22;;;0.92;100.00
20145;BME280;10233;50.814;6.590;2023-04-06T02:44:08;100330.28;;;0.79;100.00
20145;BME280;10233;50.814;6.590;2023-04-06T02:45:16;100337.44;;;0.87;100.00
20145;BME280;10233;50.814;6.590;2023-04-06T02:46:20;100339.09;;;0.88;100.00
20145;BME280;10233;50.814;6.590;2023-04-06T02:47:21;100331.38;;;0.96;100.00
20145;BME280;10233;50.814;6.590;2023-04-06T02:48:24;100332.34;;;0.95;100.00
20145;BME280;10233;50.814;6.590;2023-04-06T02:49:26;100331.94;;;0.90;100.00
20145;BME280;10233;50.814;6.590;2023-04-06T02:50:30;100333.03;;;0.78;100.00
20145;BME280;10233;50.814;6.590;2023-04-06T02:51:35;100335.53;;;0.89;100.00
20145;BME280;10233;50.814;6.590;2023-04-06T02:52:54;100332.19;;;0.68;100.00
20145;BME280;10233;50.814;6.590;2023-04-06T02:53:55;100338.28;;;0.59;100.00
20145;BME280;10233;50.814;6.590;2023-04-06T02:54:56;100327.53;;;0.52;100.00
20145;BME280;10233;50.814;6.590;2023-04-06T02:56:01;100333.16;;;0.48;100.00
20145;BME280;10233;50.814;6.590;2023-04-06T02:57:11;100339.03;;;0.31;100.00
20145;BME280;10233;50.814;6.590;2023-04-06T02:58:16;100335.72;;;0.29;100.00
20145;BME280;10233;50.814;6.590;2023-04-06T02:59:21;100335.22;;;0.35;100.00
20145;BME280;10233;50.814;6.590;2023-04-06T03:00:32;100340.16;;;0.38;100.00
20145;BME280;10233;50.814;6.590;2023-04-06T03:01:33;100333.41;;;0.26;100.00
20145;BME280;10233;50.814;6.590;2023-04-06T03:02:38;100331.75;;;0.25;100.00
20145;BME280;10233;50.814;6.590;2023-04-06T03:03:43;100333.09;;;0.19;100.00
20145;BME280;10233;50.814;6.590;2023-04-06T03:04:50;100330.31;;;0.11;100.00
20145;BME280;10233;50.814;6.590;2023-04-06T03:06:00;100325.00;;;0.22;100.00
20145;BME280;10233;50.814;6.590;2023-04-06T03:07:04;100324.03;;;0.23;100.00
20145;BME280;10233;50.814;6.590;2023-04-06T03:08:09;100327.31;;;0.16;100.00
20145;BME280;10233;50.814;6.590;2023-04-06T03:09:17;100324.97;;;0.13;100.00
20145;BME280;10233;50.814;6.590;2023-04-06T03:10:18;100330.88;;;0.05;100.00
20145;BME280;10233;50.814;6.590;2023-04-06T03:11:21;100326.34;;;0.08;100.00
20145;BME280;10233;50.814;6.590;2023-04-06T03:12:24;100327.88;;;0.10;100.00
20145;BME280;10233;50.814;6.590;2023-04-06T03:13:51;100324.53;;;0.08;100.00
20145;BME280;10233;50.814;6.590;2023-04-06T03:14:52;100328.81;;;0.09;100.00
20145;BME280;10233;50.814;6.590;2023-04-06T03:15:54;100326.09;;;0.20;100.00
20145;BME280;10233;50.814;6.590;2023-04-06T03:16:56;100334.19;;;0.17;100.00
20145;BME280;10233;50.814;6.590;2023-04-06T03:17:58;100326.09;;;0.20;100.00
20145;BME280;10233;50.814;6.590;2023-04-06T03:19:13;100330.91;;;0.24;100.00
20145;BME280;10233;50.814;6.590;2023-04-06T03:20:14;100326.94;;;0.30;100.00
20145;BME280;10233;50.814;6.590;2023-04-06T03:21:15;100332.19;;;0.30;100.00
20145;BME280;10233;50.814;6.590;2023-04-06T03:22:21;100331.63;;;0.36;100.00
20145;BME280;10233;50.814;6.590;2023-04-06T03:23:22;100326.66;;;0.33;100.00
20145;BME280;10233;50.814;6.590;2023-04-06T03:24:27;100332.59;;;0.35;100.00
20145;BME280;10233;50.814;6.590;2023-04-06T03:25:28;100333.53;;;0.34;100.00
20145;BME280;10233;50.814;6.590;2023-04-06T03:26:34;100334.50;;;0.33;100.00
20145;BME280;10233;50.814;6.590;2023-04-06T03:27:39;100328.03;;;0.37;100.00
20145;BME280;10233;50.814;6.590;2023-04-06T03:28:43;100329.69;;;0.38;100.00
20145;BME280;10233;50.814;6.590;2023-04-06T03:29:44;100322.81;;;0.37;100.00
20145;BME280;10233;50.814;6.590;2023-04-06T03:30:49;100322.81;;;0.37;100.00
20145;BME280;10233;50.814;6.590;2023-04-06T03:31:55;100328.31;;;0.34;100.00
20145;BME280;10233;50.814;6.590;2023-04-06T03:33:06;100324.03;;;0.33;100.00
20145;BME280;10233;50.814;6.590;2023-04-06T03:34:14;100321.72;;;0.30;100.00
20145;BME280;10233;50.814;6.590;2023-04-06T03:35:15;100330.66;;;0.28;100.00
20145;BME280;10233;50.814;6.590;2023-04-06T03:36:16;100323.50;;;0.39;100.00
20145;BME280;10233;50.814;6.590;2023-04-06T03:37:18;100323.66;;;0.38;100.00
20145;BME280;10233;50.814;6.590;2023-04-06T03:38:24;100324.47;;;0.38;100.00
20145;BME280;10233;50.814;6.590;2023-04-06T03:39:25;100324.88;;;0.33;100.00
20145;BME280;10233;50.814;6.590;2023-04-06T03:40:26;100318.69;;;0.34;100.00
20145;BME280;10233;50.814;6.590;2023-04-06T03:41:27;100325.84;;;0.32;100.00
20145;BME280;10233;50.814;6.590;2023-04-06T03:42:36;100322.69;;;0.38;100.00
20145;BME280;10233;50.814;6.590;2023-04-06T03:43:43;100322.56;;;0.40;100.00
20145;BME280;10233;50.814;6.590;2023-04-06T03:44:45;100322.69;;;0.38;100.00
20145;BME280;10233;50.814;6.590;2023-04-06T03:45:46;100329.00;;;0.45;100.00
20145;BME280;10233;50.814;6.590;2023-04-06T03:46:48;100321.44;;;0.33;100.00
20145;BME280;10233;50.814;6.590;2023-04-06T03:47:49;100323.38;;;0.31;100.00
20145;BME280;10233;50.814;6.590;2023-04-06T03:48:50;100314.81;;;0.29;100.00
20145;BME280;10233;50.814;6.590;2023-04-06T03:49:53;100323.63;;;0.28;100.00
20145;BME280;10233;50.814;6.590;2023-04-06T03:50:55;100326.38;;;0.26;100.00
20145;BME280;10233;50.814;6.590;2023-04-06T03:51:56;100321.16;;;0.26;100.00
20145;BME280;10233;50.814;6.590;2023-04-06T03:52:57;100330.13;;;0.33;100.00
20145;BME280;10233;50.814;6.590;2023-04-06T03:53:57;100319.25;;;0.38;100.00
20145;BME280;10233;50.814;6.590;2023-04-06T03:54:58;100322.53;;;0.30;100.00
20145;BME280;10233;50.814;6.590;2023-04-06T03:55:59;100328.84;;;0.28;100.00
20145;BME280;10233;50.814;6.590;2023-04-06T03:57:04;100320.34;;;0.26;100.00
20145;BME280;10233;50.814;6.590;2023-04-06T03:58:05;100323.38;;;0.31;100.00
20145;BME280;10233;50.814;6.590;2023-04-06T03:59:06;100323.63;;;0.28;100.00
20145;BME280;10233;50.814;6.590;2023-04-06T04:00:07;100320.88;;;0.29;100.00
20145;BME280;10233;50.814;6.590;2023-04-06T04:01:17;100320.34;;;0.26;100.00
20145;BME280;10233;50.814;6.590;2023-04-06T04:02:20;100320.88;;;0.29;100.00
20145;BME280;10233;50.814;6.590;2023-04-06T04:03:21;100316.34;;;0.22;100.00
20145;BME280;10233;50.814;6.590;2023-04-06T04:04:23;100320.72;;;0.21;100.00
20145;BME280;10233;50.814;6.590;2023-04-06T04:05:25;100319.19;;;0.19;100.00
20145;BME280;10233;50.814;6.590;2023-04-06T04:06:26;100322.78;;;0.18;100.00
20145;BME280;10233;50.814;6.590;2023-04-06T04:07:27;100316.75;;;0.17;100.00
20145;BME280;10233;50.814;6.590;2023-04-06T04:08:28;100320.47;;;0.15;100.00
20145;BME280;10233;50.814;6.590;2023-04-06T04:09:29;100319.63;;;0.14;100.00
20145;BME280;10233;50.814;6.590;2023-04-06T04:10:29;100316.75;;;0.17;100.00
20145;BME280;10233;50.814;6.590;2023-04-06T04:11:30;100312.88;;;0.21;100.00
20145;BME280;10233;50.814;6.590;2023-04-06T04:12:33;100312.88;;;0.21;100.00
20145;BME280;10233;50.814;6.590;2023-04-06T04:13:34;100316.19;;;0.23;100.00
20145;BME280;10233;50.814;6.590;2023-04-06T04:14:37;100315.38;;;0.23;100.00
20145;BME280;10233;50.814;6.590;2023-04-06T04:15:38;100313.84;;;0.20;100.00
20145;BME280;10233;50.814;6.590;2023-04-06T04:16:38;100314.13;;;0.27;100.00
20145;BME280;10233;50.814;6.590;2023-04-06T04:17:39;100318.16;;;0.31;100.00
20145;BME280;10233;50.814;6.590;2023-04-06T04:18:40;100323.06;;;0.34;100.00
20145;BME280;10233;50.814;6.590;2023-04-06T04:19:43;100318.00;;;0.32;100.00
20145;BME280;10233;50.814;6.590;2023-04-06T04:20:44;100321.56;;;0.31;100.00
20145;BME280;10233;50.814;6.590;2023-04-06T04:21:47;100321.31;;;0.34;100.00
20145;BME280;10233;50.814;6.590;2023-04-06T04:22:51;100324.47;;;0.38;100.00
20145;BME280;10233;50.814;6.590;2023-04-06T04:23:55;100326.09;;;0.29;100.00
20145;BME280;10233;50.814;6.590;2023-04-06T04:24:56;100317.03;;;0.33;100.00
20145;BME280;10233;50.814;6.590;2023-04-06T04:25:57;100321.19;;;0.36;100.00
20145;BME280;10233;50.814;6.590;2023-04-06T04:26:58;100322.94;;;0.26;100.00
20145;BME280;10233;50.814;6.590;2023-04-06T04:27:59;100324.16;;;0.22;100.00
20145;BME280;10233;50.814;6.590;2023-04-06T04:29:00;100318.28;;;0.20;100.00
20145;BME280;10233;50.814;6.590;2023-04-06T04:30:01;100316.59;;;0.19;100.00
20145;BME280;10233;50.814;6.590;2023-04-06T04:31:01;100322.91;;;0.16;100.00
20145;BME280;10233;50.814;6.590;2023-04-06T04:32:05;100323.06;;;0.15;100.00
20145;BME280;10233;50.814;6.590;2023-04-06T04:33:07;100319.19;;;0.19;100.00
20145;BME280;10233;50.814;6.590;2023-04-06T04:34:10;100323.75;;;0.17;100.00
20145;BME280;10233;50.814;6.590;2023-04-06T04:35:12;100325.25;;;0.10;100.00
20145;BME280;10233;50.814;6.590;2023-04-06T04:36:16;100319.59;;;0.05;100.00
20145;BME280;10233;50.814;6.590;2023-04-06T04:37:18;100322.22;;;0.14;100.00
20145;BME280;10233;50.814;6.590;2023-04-06T04:38:26;100315.91;;;0.17;100.00
20145;BME280;10233;50.814;6.590;2023-04-06T04:39:29;100318.41;;;0.18;100.00
20145;BME280;10233;50.814;6.590;2023-04-06T04:40:38;100314.41;;;0.14;100.00
20145;BME280;10233;50.814;6.590;2023-04-06T04:41:42;100322.78;;;0.18;100.00
20145;BME280;10233;50.814;6.590;2023-04-06T04:42:45;100316.47;;;0.20;100.00
20145;BME280;10233;50.814;6.590;2023-04-06T04:43:53;100321.41;;;0.14;100.00
20145;BME280;10233;50.814;6.590;2023-04-06T04:44:56;100325.25;;;0.19;100.00
20145;BME280;10233;50.814;6.590;2023-04-06T04:46:10;100318.41;;;0.18;100.00
20145;BME280;10233;50.814;6.590;2023-04-06T04:47:13;100317.31;;;0.21;100.00
20145;BME280;10233;50.814;6.590;2023-04-06T04:48:18;100322.53;;;0.21;100.00
20145;BME280;10233;50.814;6.590;2023-04-06T04:49:25;100325.81;;;0.23;100.00
20145;BME280;10233;50.814;6.590;2023-04-06T04:50:26;100326.78;;;0.22;100.00
20145;BME280;10233;50.814;6.590;2023-04-06T04:51:30;100322.66;;;0.29;100.00
20145;BME280;10233;50.814;6.590;2023-04-06T04:52:43;100321.84;;;0.28;100.00
20145;BME280;10233;50.814;6.590;2023-04-06T04:53:48;100317.03;;;0.43;100.00
20145;BME280;10233;50.814;6.590;2023-04-06T04:54:55;100324.75;;;0.44;100.00
20145;BME280;10233;50.814;6.590;2023-04-06T04:56:00;100316.09;;;0.53;100.00
20145;BME280;10233;50.814;6.590;2023-04-06T04:57:01;100317.47;;;0.67;100.00
20145;BME280;10233;50.814;6.590;2023-04-06T04:58:13;100317.78;;;0.83;100.00
20145;BME280;10233;50.814;6.590;2023-04-06T04:59:30;100319.69;;;1.00;100.00
20145;BME280;10233;50.814;6.590;2023-04-06T05:00:37;100318.13;;;1.07;100.00
20145;BME280;10233;50.814;6.590;2023-04-06T05:01:37;100317.31;;;1.16;100.00
20145;BME280;10233;50.814;6.590;2023-04-06T05:02:38;100321.28;;;1.20;100.00
20145;BME280;10233;50.814;6.590;2023-04-06T05:03:58;100317.66;;;1.40;100.00
20145;BME280;10233;50.814;6.590;2023-04-06T05:04:59;100315.03;;;1.50;100.00
20145;BME280;10233;50.814;6.590;2023-04-06T05:06:02;100317.75;;;1.58;100.00
20145;BME280;10233;50.814;6.590;2023-04-06T05:07:07;100312.75;;;1.64;100.00
20145;BME280;10233;50.814;6.590;2023-04-06T05:08:10;100311.66;;;1.67;100.00
20145;BME280;10233;50.814;6.590;2023-04-06T05:09:20;100313.75;;;1.90;100.00
20145;BME280;10233;50.814;6.590;2023-04-06T05:10:21;100311.81;;;1.92;100.00
20145;BME280;10233;50.814;6.590;2023-04-06T05:11:27;100313.75;;;1.90;100.00
20145;BME280;10233;50.814;6.590;2023-04-06T05:12:33;100316.47;;;1.98;100.00
20145;BME280;10233;50.814;6.590;2023-04-06T05:13:39;100311.63;;;2.03;100.00
20145;BME280;10233;50.814;6.590;2023-04-06T05:14:51;100313.63;;;2.19;100.00
20145;BME280;10233;50.814;6.590;2023-04-06T05:15:56;100315.50;;;2.26;100.00
20145;BME280;10233;50.814;6.590;2023-04-06T05:17:03;100313.94;;;2.33;100.00
20145;BME280;10233;50.814;6.590;2023-04-06T05:18:04;100314.69;;;2.43;100.00
20145;BME280;10233;50.814;6.590;2023-04-06T05:19:09;100318.06;;;2.53;100.00
20145;BME280;10233;50.814;6.590;2023-04-06T05:20:16;100322.00;;;2.67;100.00
20145;BME280;10233;50.814;6.590;2023-04-06T05:21:22;100310.00;;;2.64;100.00
20145;BME280;10233;50.814;6.590;2023-04-06T05:22:29;100318.16;;;2.79;100.00
20145;BME280;10233;50.814;6.590;2023-04-06T05:23:39;100324.53;;;2.76;100.00
20145;BME280;10233;50.814;6.590;2023-04-06T05:24:40;100318.66;;;2.82;100.00
20145;BME280;10233;50.814;6.590;2023-04-06T05:25:42;100318.75;;;2.90;100.00
20145;BME280;10233;50.814;6.590;2023-04-06T05:26:53;100318.84;;;2.98;100.00
20145;BME280;10233;50.814;6.590;2023-04-06T05:27:57;100317.31;;;3.13;100.00
20145;BME280;10233;50.814;6.590;2023-04-06T05:29:10;100315.03;;;3.18;100.00
20145;BME280;10233;50.814;6.590;2023-04-06T05:30:12;100309.66;;;3.20;100.00
20145;BME280;10233;50.814;6.590;2023-04-06T05:31:17;100301.47;;;3.48;100.00
20145;BME280;10233;50.814;6.590;2023-04-06T05:32:22;100311.97;;;3.48;100.00
20145;BME280;10233;50.814;6.590;2023-04-06T05:33:25;100314.94;;;3.53;100.00